Parkman, Wyoming
Current Conditions -  °F | °C
As of 4:53 PM on Saturday 25 Oct 2014 (Local Time) from KSHR Reporting Station
Clear Clear  
Wind Chill: 73°   Ceiling: Unl
Heat Index: 73°   Visibility: 10mi
Dew Point: 37°   Wind: 3mph
Humidity: 27%   Direction: 290°WNW
Pressure: 29.82"   Gusts: NA
Location:  44.96°N, 107.33°W
Report Text: KSHR 252253Z AUTO 29003KT 10SM CLR 23/03 A2982 RMK AO2 SLP091 T02280028 TSNO
Loading
Personal Weather Stations






























Interactive Weather Map
Tropical Storm Tracking
New forecast layout! Learn more

10-Day Weather Forecast

Advertisements
Track Severe Weather on mobile